sensor_id;sensor_type;location;lat;lon;timestamp;P1;durP1;ratioP1;P2;durP2;ratioP2
36445;SDS011;22472;50.848;-1.216;2023-08-01T00:01:16;15.88;;;5.22;;
36445;SDS011;22472;50.848;-1.216;2023-08-01T00:03:43;12.80;;;4.93;;
36445;SDS011;22472;50.848;-1.216;2023-08-01T00:06:11;16.30;;;5.53;;
36445;SDS011;22472;50.848;-1.216;2023-08-01T00:08:38;18.15;;;5.65;;
36445;SDS011;22472;50.848;-1.216;2023-08-01T00:11:05;16.67;;;5.20;;
36445;SDS011;22472;50.848;-1.216;2023-08-01T00:13:34;14.98;;;5.18;;
36445;SDS011;22472;50.848;-1.216;2023-08-01T00:16:02;15.80;;;5.43;;
36445;SDS011;22472;50.848;-1.216;2023-08-01T00:18:30;17.90;;;4.85;;
36445;SDS011;22472;50.848;-1.216;2023-08-01T00:20:58;17.52;;;4.93;;
36445;SDS011;22472;50.848;-1.216;2023-08-01T00:23:25;12.30;;;4.68;;
36445;SDS011;22472;50.848;-1.216;2023-08-01T00:25:52;20.17;;;5.60;;
36445;SDS011;22472;50.848;-1.216;2023-08-01T00:28:19;17.52;;;4.78;;
36445;SDS011;22472;50.848;-1.216;2023-08-01T00:30:47;17.08;;;4.65;;
36445;SDS011;22472;50.848;-1.216;2023-08-01T00:33:14;13.85;;;5.20;;
36445;SDS011;22472;50.848;-1.216;2023-08-01T00:35:42;17.10;;;5.28;;
36445;SDS011;22472;50.848;-1.216;2023-08-01T00:38:10;19.73;;;5.43;;
36445;SDS011;22472;50.848;-1.216;2023-08-01T00:40:37;17.95;;;4.57;;
36445;SDS011;22472;50.848;-1.216;2023-08-01T00:43:04;16.65;;;5.50;;
36445;SDS011;22472;50.848;-1.216;2023-08-01T00:45:31;18.23;;;5.20;;
36445;SDS011;22472;50.848;-1.216;2023-08-01T00:47:59;17.48;;;4.78;;
36445;SDS011;22472;50.848;-1.216;2023-08-01T00:50:26;11.55;;;3.90;;
36445;SDS011;22472;50.848;-1.216;2023-08-01T00:52:55;9.82;;;3.60;;
36445;SDS011;22472;50.848;-1.216;2023-08-01T00:55:22;17.35;;;3.88;;
36445;SDS011;22472;50.848;-1.216;2023-08-01T00:57:49;10.60;;;3.67;;
36445;SDS011;22472;50.848;-1.216;2023-08-01T01:00:17;12.63;;;3.70;;
36445;SDS011;22472;50.848;-1.216;2023-08-01T01:02:44;10.95;;;3.80;;
36445;SDS011;22472;50.848;-1.216;2023-08-01T01:05:12;13.73;;;4.03;;
36445;SDS011;22472;50.848;-1.216;2023-08-01T01:07:40;13.13;;;3.38;;
36445;SDS011;22472;50.848;-1.216;2023-08-01T01:10:09;16.15;;;3.70;;
36445;SDS011;22472;50.848;-1.216;2023-08-01T01:12:37;14.43;;;3.60;;
36445;SDS011;22472;50.848;-1.216;2023-08-01T01:15:04;15.65;;;3.90;;
36445;SDS011;22472;50.848;-1.216;2023-08-01T01:17:32;13.65;;;4.05;;
36445;SDS011;22472;50.848;-1.216;2023-08-01T01:19:59;13.65;;;3.50;;
36445;SDS011;22472;50.848;-1.216;2023-08-01T01:22:27;14.73;;;3.42;;
36445;SDS011;22472;50.848;-1.216;2023-08-01T01:24:56;11.00;;;3.35;;
36445;SDS011;22472;50.848;-1.216;2023-08-01T01:27:24;13.45;;;3.35;;
36445;SDS011;22472;50.848;-1.216;2023-08-01T01:29:51;11.63;;;3.00;;
36445;SDS011;22472;50.848;-1.216;2023-08-01T01:32:19;9.77;;;3.33;;
36445;SDS011;22472;50.848;-1.216;2023-08-01T01:34:46;12.90;;;3.90;;
36445;SDS011;22472;50.848;-1.216;2023-08-01T01:37:14;14.30;;;3.65;;
36445;SDS011;22472;50.848;-1.216;2023-08-01T01:39:42;12.02;;;3.10;;
36445;SDS011;22472;50.848;-1.216;2023-08-01T01:42:10;13.48;;;3.40;;
36445;SDS011;22472;50.848;-1.216;2023-08-01T01:44:38;10.93;;;3.15;;
36445;SDS011;22472;50.848;-1.216;2023-08-01T01:47:05;15.40;;;3.33;;
36445;SDS011;22472;50.848;-1.216;2023-08-01T01:49:33;11.52;;;3.20;;
36445;SDS011;22472;50.848;-1.216;2023-08-01T01:52:00;16.13;;;3.50;;
36445;SDS011;22472;50.848;-1.216;2023-08-01T01:54:27;12.50;;;3.35;;
36445;SDS011;22472;50.848;-1.216;2023-08-01T01:56:56;12.77;;;3.25;;
36445;SDS011;22472;50.848;-1.216;2023-08-01T01:59:23;14.02;;;3.42;;
36445;SDS011;22472;50.848;-1.216;2023-08-01T02:01:50;13.63;;;3.63;;
36445;SDS011;22472;50.848;-1.216;2023-08-01T02:04:18;14.63;;;3.50;;
36445;SDS011;22472;50.848;-1.216;2023-08-01T02:06:45;13.18;;;3.45;;
36445;SDS011;22472;50.848;-1.216;2023-08-01T02:09:13;15.25;;;3.42;;
36445;SDS011;22472;50.848;-1.216;2023-08-01T02:11:40;12.45;;;3.53;;
36445;SDS011;22472;50.848;-1.216;2023-08-01T02:14:09;13.40;;;3.10;;
36445;SDS011;22472;50.848;-1.216;2023-08-01T02:16:36;17.58;;;4.05;;
36445;SDS011;22472;50.848;-1.216;2023-08-01T02:19:03;16.27;;;3.95;;
36445;SDS011;22472;50.848;-1.216;2023-08-01T02:21:30;14.30;;;3.63;;
36445;SDS011;22472;50.848;-1.216;2023-08-01T02:23:58;15.70;;;3.60;;
36445;SDS011;22472;50.848;-1.216;2023-08-01T02:26:25;16.42;;;3.85;;
36445;SDS011;22472;50.848;-1.216;2023-08-01T02:28:54;13.30;;;3.40;;
36445;SDS011;22472;50.848;-1.216;2023-08-01T02:31:22;15.65;;;4.53;;
36445;SDS011;22472;50.848;-1.216;2023-08-01T02:33:51;19.17;;;3.97;;
36445;SDS011;22472;50.848;-1.216;2023-08-01T02:36:18;14.65;;;3.63;;
36445;SDS011;22472;50.848;-1.216;2023-08-01T02:38:45;15.60;;;3.97;;
36445;SDS011;22472;50.848;-1.216;2023-08-01T02:41:12;17.02;;;3.97;;
36445;SDS011;22472;50.848;-1.216;2023-08-01T02:43:40;14.85;;;4.05;;
36445;SDS011;22472;50.848;-1.216;2023-08-01T02:46:06;18.30;;;4.15;;
36445;SDS011;22472;50.848;-1.216;2023-08-01T02:48:35;12.77;;;4.00;;
36445;SDS011;22472;50.848;-1.216;2023-08-01T02:51:02;21.25;;;4.45;;
36445;SDS011;22472;50.848;-1.216;2023-08-01T02:53:29;16.42;;;4.30;;
36445;SDS011;22472;50.848;-1.216;2023-08-01T02:55:57;16.33;;;4.35;;
36445;SDS011;22472;50.848;-1.216;2023-08-01T02:58:24;16.30;;;4.03;;
36445;SDS011;22472;50.848;-1.216;2023-08-01T03:00:51;18.65;;;4.60;;
36445;SDS011;22472;50.848;-1.216;2023-08-01T03:03:18;19.50;;;4.68;;
36445;SDS011;22472;50.848;-1.216;2023-08-01T03:05:48;19.73;;;5.25;;
36445;SDS011;22472;50.848;-1.216;2023-08-01T03:08:15;15.75;;;4.78;;
36445;SDS011;22472;50.848;-1.216;2023-08-01T03:10:42;25.48;;;5.65;;
36445;SDS011;22472;50.848;-1.216;2023-08-01T03:13:10;17.20;;;5.30;;
36445;SDS011;22472;50.848;-1.216;2023-08-01T03:15:37;17.35;;;4.75;;
36445;SDS011;22472;50.848;-1.216;2023-08-01T03:18:04;14.85;;;4.30;;
36445;SDS011;22472;50.848;-1.216;2023-08-01T03:20:32;21.90;;;4.88;;
36445;SDS011;22472;50.848;-1.216;2023-08-01T03:23:00;13.77;;;4.18;;
36445;SDS011;22472;50.848;-1.216;2023-08-01T03:25:28;16.55;;;4.20;;
36445;SDS011;22472;50.848;-1.216;2023-08-01T03:27:56;17.42;;;4.05;;
36445;SDS011;22472;50.848;-1.216;2023-08-01T03:30:23;18.58;;;4.22;;
36445;SDS011;22472;50.848;-1.216;2023-08-01T03:32:51;13.45;;;3.85;;
36445;SDS011;22472;50.848;-1.216;2023-08-01T03:35:18;17.42;;;4.10;;
36445;SDS011;22472;50.848;-1.216;2023-08-01T03:37:45;16.95;;;4.05;;
36445;SDS011;22472;50.848;-1.216;2023-08-01T03:40:14;16.88;;;4.55;;
36445;SDS011;22472;50.848;-1.216;2023-08-01T03:42:41;20.75;;;5.00;;
36445;SDS011;22472;50.848;-1.216;2023-08-01T03:45:09;18.00;;;4.75;;
36445;SDS011;22472;50.848;-1.216;2023-08-01T03:47:36;18.38;;;4.40;;
36445;SDS011;22472;50.848;-1.216;2023-08-01T03:50:04;18.20;;;4.40;;
36445;SDS011;22472;50.848;-1.216;2023-08-01T03:52:31;17.70;;;4.20;;
36445;SDS011;22472;50.848;-1.216;2023-08-01T03:54:59;18.17;;;4.05;;
36445;SDS011;22472;50.848;-1.216;2023-08-01T03:57:27;15.68;;;4.28;;
36445;SDS011;22472;50.848;-1.216;2023-08-01T03:59:55;23.13;;;4.75;;
36445;SDS011;22472;50.848;-1.216;2023-08-01T04:02:22;15.48;;;4.00;;
36445;SDS011;22472;50.848;-1.216;2023-08-01T04:04:49;20.63;;;4.60;;
36445;SDS011;22472;50.848;-1.216;2023-08-01T04:07:16;16.30;;;3.60;;
36445;SDS011;22472;50.848;-1.216;2023-08-01T04:09:44;16.83;;;3.60;;
36445;SDS011;22472;50.848;-1.216;2023-08-01T04:12:11;16.50;;;3.40;;
36445;SDS011;22472;50.848;-1.216;2023-08-01T04:14:40;13.10;;;3.65;;
36445;SDS011;22472;50.848;-1.216;2023-08-01T04:17:07;14.70;;;3.55;;
36445;SDS011;22472;50.848;-1.216;2023-08-01T04:19:34;14.85;;;3.72;;
36445;SDS011;22472;50.848;-1.216;2023-08-01T04:22:01;16.95;;;3.38;;
36445;SDS011;22472;50.848;-1.216;2023-08-01T04:24:29;14.80;;;3.60;;
36445;SDS011;22472;50.848;-1.216;2023-08-01T04:26:56;15.98;;;3.65;;
36445;SDS011;22472;50.848;-1.216;2023-08-01T04:29:23;14.40;;;3.45;;
36445;SDS011;22472;50.848;-1.216;2023-08-01T04:31:52;15.68;;;3.50;;
36445;SDS011;22472;50.848;-1.216;2023-08-01T04:34:19;17.48;;;3.72;;
36445;SDS011;22472;50.848;-1.216;2023-08-01T04:36:46;18.90;;;4.10;;
36445;SDS011;22472;50.848;-1.216;2023-08-01T04:39:14;15.68;;;3.63;;
36445;SDS011;22472;50.848;-1.216;2023-08-01T04:41:41;13.30;;;3.50;;
36445;SDS011;22472;50.848;-1.216;2023-08-01T04:44:08;14.70;;;3.63;;
36445;SDS011;22472;50.848;-1.216;2023-08-01T04:46:35;14.70;;;3.45;;
36445;SDS011;22472;50.848;-1.216;2023-08-01T04:49:04;16.65;;;3.22;;
36445;SDS011;22472;50.848;-1.216;2023-08-01T04:51:31;14.02;;;3.22;;
36445;SDS011;22472;50.848;-1.216;2023-08-01T04:53:58;9.70;;;3.03;;
36445;SDS011;22472;50.848;-1.216;2023-08-01T04:56:26;17.70;;;4.32;;
36445;SDS011;22472;50.848;-1.216;2023-08-01T04:58:53;17.77;;;5.20;;
36445;SDS011;22472;50.848;-1.216;2023-08-01T05:01:20;20.75;;;6.15;;
36445;SDS011;22472;50.848;-1.216;2023-08-01T05:03:48;19.90;;;4.82;;
36445;SDS011;22472;50.848;-1.216;2023-08-01T05:06:16;17.40;;;4.43;;
36445;SDS011;22472;50.848;-1.216;2023-08-01T05:08:43;18.33;;;4.88;;
36445;SDS011;22472;50.848;-1.216;2023-08-01T05:11:11;19.42;;;4.65;;
36445;SDS011;22472;50.848;-1.216;2023-08-01T05:13:38;15.25;;;4.68;;
36445;SDS011;22472;50.848;-1.216;2023-08-01T05:16:05;19.88;;;4.95;;
36445;SDS011;22472;50.848;-1.216;2023-08-01T05:18:32;18.05;;;4.40;;
36445;SDS011;22472;50.848;-1.216;2023-08-01T05:21:00;17.60;;;4.78;;
36445;SDS011;22472;50.848;-1.216;2023-08-01T05:23:28;18.40;;;5.07;;
36445;SDS011;22472;50.848;-1.216;2023-08-01T05:25:55;16.90;;;4.20;;
36445;SDS011;22472;50.848;-1.216;2023-08-01T05:28:22;15.98;;;3.78;;
36445;SDS011;22472;50.848;-1.216;2023-08-01T05:30:50;10.82;;;3.22;;
36445;SDS011;22472;50.848;-1.216;2023-08-01T05:33:17;12.65;;;3.08;;
36445;SDS011;22472;50.848;-1.216;2023-08-01T05:35:44;11.55;;;2.72;;
36445;SDS011;22472;50.848;-1.216;2023-08-01T05:38:11;12.60;;;2.83;;
36445;SDS011;22472;50.848;-1.216;2023-08-01T05:40:40;14.77;;;3.30;;
36445;SDS011;22472;50.848;-1.216;2023-08-01T05:43:07;11.45;;;2.90;;
36445;SDS011;22472;50.848;-1.216;2023-08-01T05:45:35;11.40;;;2.90;;
36445;SDS011;22472;50.848;-1.216;2023-08-01T05:48:02;13.57;;;3.05;;
36445;SDS011;22472;50.848;-1.216;2023-08-01T05:50:29;14.02;;;3.10;;
36445;SDS011;22472;50.848;-1.216;2023-08-01T05:52:56;19.00;;;3.20;;
36445;SDS011;22472;50.848;-1.216;2023-08-01T05:55:24;14.10;;;3.17;;
36445;SDS011;22472;50.848;-1.216;2023-08-01T05:57:52;14.18;;;3.22;;
36445;SDS011;22472;50.848;-1.216;2023-08-01T06:00:20;13.07;;;3.17;;
36445;SDS011;22472;50.848;-1.216;2023-08-01T06:02:47;15.13;;;3.40;;
36445;SDS011;22472;50.848;-1.216;2023-08-01T06:05:14;13.98;;;3.08;;
36445;SDS011;22472;50.848;-1.216;2023-08-01T06:07:41;14.27;;;3.03;;
36445;SDS011;22472;50.848;-1.216;2023-08-01T06:10:09;15.05;;;3.50;;
36445;SDS011;22472;50.848;-1.216;2023-08-01T06:12:36;18.83;;;3.95;;
36445;SDS011;22472;50.848;-1.216;2023-08-01T06:15:05;14.52;;;3.13;;
36445;SDS011;22472;50.848;-1.216;2023-08-01T06:17:32;12.98;;;3.17;;
36445;SDS011;22472;50.848;-1.216;2023-08-01T06:20:00;12.30;;;3.20;;
36445;SDS011;22472;50.848;-1.216;2023-08-01T06:22:32;12.73;;;3.25;;
36445;SDS011;22472;50.848;-1.216;2023-08-01T06:24:59;13.55;;;3.20;;
36445;SDS011;22472;50.848;-1.216;2023-08-01T06:27:26;12.68;;;3.15;;
36445;SDS011;22472;50.848;-1.216;2023-08-01T06:29:53;14.73;;;3.40;;
36445;SDS011;22472;50.848;-1.216;2023-08-01T06:32:22;13.93;;;3.58;;
36445;SDS011;22472;50.848;-1.216;2023-08-01T06:34:49;13.18;;;3.35;;
36445;SDS011;22472;50.848;-1.216;2023-08-01T06:37:16;10.40;;;3.05;;
36445;SDS011;22472;50.848;-1.216;2023-08-01T06:39:44;13.60;;;2.83;;
36445;SDS011;22472;50.848;-1.216;2023-08-01T06:42:11;12.82;;;2.63;;
36445;SDS011;22472;50.848;-1.216;2023-08-01T06:44:38;12.27;;;2.40;;
36445;SDS011;22472;50.848;-1.216;2023-08-01T06:47:05;12.65;;;2.58;;
36445;SDS011;22472;50.848;-1.216;2023-08-01T06:49:34;10.48;;;2.03;;
36445;SDS011;22472;50.848;-1.216;2023-08-01T06:52:02;12.35;;;2.20;;
36445;SDS011;22472;50.848;-1.216;2023-08-01T06:54:29;9.85;;;2.85;;
36445;SDS011;22472;50.848;-1.216;2023-08-01T06:56:56;6.65;;;2.20;;
36445;SDS011;22472;50.848;-1.216;2023-08-01T06:59:25;8.13;;;2.35;;
36445;SDS011;22472;50.848;-1.216;2023-08-01T07:01:52;11.00;;;2.60;;
36445;SDS011;22472;50.848;-1.216;2023-08-01T07:04:19;12.05;;;2.80;;
36445;SDS011;22472;50.848;-1.216;2023-08-01T07:06:48;13.52;;;3.13;;
36445;SDS011;22472;50.848;-1.216;2023-08-01T07:09:15;10.02;;;2.60;;
36445;SDS011;22472;50.848;-1.216;2023-08-01T07:11:42;12.45;;;2.45;;
36445;SDS011;22472;50.848;-1.216;2023-08-01T07:14:09;12.15;;;2.78;;
36445;SDS011;22472;50.848;-1.216;2023-08-01T07:16:36;10.88;;;2.50;;
36445;SDS011;22472;50.848;-1.216;2023-08-01T07:19:03;14.07;;;2.83;;
36445;SDS011;22472;50.848;-1.216;2023-08-01T07:21:31;12.82;;;2.85;;
36445;SDS011;22472;50.848;-1.216;2023-08-01T07:23:59;12.02;;;2.38;;
36445;SDS011;22472;50.848;-1.216;2023-08-01T07:26:26;14.38;;;2.75;;
36445;SDS011;22472;50.848;-1.216;2023-08-01T07:28:55;12.88;;;2.63;;
36445;SDS011;22472;50.848;-1.216;2023-08-01T07:31:22;10.82;;;2.15;;
36445;SDS011;22472;50.848;-1.216;2023-08-01T07:33:49;8.13;;;2.10;;
36445;SDS011;22472;50.848;-1.216;2023-08-01T07:36:16;8.90;;;2.30;;
36445;SDS011;22472;50.848;-1.216;2023-08-01T07:38:43;11.65;;;2.35;;
36445;SDS011;22472;50.848;-1.216;2023-08-01T07:41:12;10.88;;;1.95;;
36445;SDS011;22472;50.848;-1.216;2023-08-01T07:43:39;9.20;;;2.30;;
36445;SDS011;22472;50.848;-1.216;2023-08-01T07:46:06;12.32;;;2.50;;
36445;SDS011;22472;50.848;-1.216;2023-08-01T07:48:35;9.20;;;2.03;;
36445;SDS011;22472;50.848;-1.216;2023-08-01T07:51:02;10.63;;;2.10;;
36445;SDS011;22472;50.848;-1.216;2023-08-01T07:53:30;9.85;;;1.90;;
36445;SDS011;22472;50.848;-1.216;2023-08-01T07:55:58;10.20;;;1.77;;
36445;SDS011;22472;50.848;-1.216;2023-08-01T07:58:28;8.90;;;1.60;;
36445;SDS011;22472;50.848;-1.216;2023-08-01T08:00:55;10.60;;;1.98;;
36445;SDS011;22472;50.848;-1.216;2023-08-01T08:03:23;8.40;;;1.60;;
36445;SDS011;22472;50.848;-1.216;2023-08-01T08:05:50;9.18;;;1.92;;
36445;SDS011;22472;50.848;-1.216;2023-08-01T08:08:17;9.73;;;2.03;;
36445;SDS011;22472;50.848;-1.216;2023-08-01T08:10:44;7.20;;;1.40;;
36445;SDS011;22472;50.848;-1.216;2023-08-01T08:13:12;9.25;;;1.50;;
36445;SDS011;22472;50.848;-1.216;2023-08-01T08:15:40;9.25;;;1.92;;
36445;SDS011;22472;50.848;-1.216;2023-08-01T08:18:07;10.77;;;1.70;;
36445;SDS011;22472;50.848;-1.216;2023-08-01T08:20:40;9.32;;;1.70;;
36445;SDS011;22472;50.848;-1.216;2023-08-01T08:23:07;13.73;;;1.88;;
36445;SDS011;22472;50.848;-1.216;2023-08-01T08:25:35;6.30;;;1.40;;
36445;SDS011;22472;50.848;-1.216;2023-08-01T08:28:02;11.18;;;1.70;;
36445;SDS011;22472;50.848;-1.216;2023-08-01T08:30:29;10.98;;;1.73;;
36445;SDS011;22472;50.848;-1.216;2023-08-01T08:32:58;7.28;;;1.50;;
36445;SDS011;22472;50.848;-1.216;2023-08-01T08:35:29;10.13;;;1.77;;
36445;SDS011;22472;50.848;-1.216;2023-08-01T08:37:57;7.20;;;1.40;;
36445;SDS011;22472;50.848;-1.216;2023-08-01T08:40:24;9.77;;;1.83;;
36445;SDS011;22472;50.848;-1.216;2023-08-01T08:42:52;10.13;;;1.27;;
36445;SDS011;22472;50.848;-1.216;2023-08-01T08:45:19;13.18;;;1.92;;
36445;SDS011;22472;50.848;-1.216;2023-08-01T08:47:48;8.45;;;1.65;;
36445;SDS011;22472;50.848;-1.216;2023-08-01T08:50:21;8.73;;;1.50;;
36445;SDS011;22472;50.848;-1.216;2023-08-01T08:52:48;8.25;;;1.20;;
36445;SDS011;22472;50.848;-1.216;2023-08-01T08:55:15;9.80;;;1.42;;
36445;SDS011;22472;50.848;-1.216;2023-08-01T08:57:46;10.25;;;1.90;;
36445;SDS011;22472;50.848;-1.216;2023-08-01T09:00:16;9.17;;;1.70;;
36445;SDS011;22472;50.848;-1.216;2023-08-01T09:02:44;10.32;;;1.60;;
36445;SDS011;22472;50.848;-1.216;2023-08-01T09:05:11;9.48;;;1.63;;
36445;SDS011;22472;50.848;-1.216;2023-08-01T09:07:41;6.45;;;1.45;;
36445;SDS011;22472;50.848;-1.216;2023-08-01T09:10:09;9.60;;;1.70;;
36445;SDS011;22472;50.848;-1.216;2023-08-01T09:12:44;6.43;;;1.73;;
36445;SDS011;22472;50.848;-1.216;2023-08-01T09:15:11;7.90;;;1.75;;
36445;SDS011;22472;50.848;-1.216;2023-08-01T09:17:47;6.95;;;1.48;;
36445;SDS011;22472;50.848;-1.216;2023-08-01T09:20:14;9.32;;;1.55;;
36445;SDS011;22472;50.848;-1.216;2023-08-01T09:22:43;9.75;;;2.00;;
36445;SDS011;22472;50.848;-1.216;2023-08-01T09:25:11;10.48;;;2.08;;
36445;SDS011;22472;50.848;-1.216;2023-08-01T09:27:39;12.70;;;1.88;;
36445;SDS011;22472;50.848;-1.216;2023-08-01T09:30:09;8.02;;;1.77;;
36445;SDS011;22472;50.848;-1.216;2023-08-01T09:32:38;9.45;;;1.48;;
36445;SDS011;22472;50.848;-1.216;2023-08-01T09:35:05;9.73;;;1.80;;
36445;SDS011;22472;50.848;-1.216;2023-08-01T09:37:39;8.73;;;1.50;;
36445;SDS011;22472;50.848;-1.216;2023-08-01T09:40:09;10.57;;;1.70;;
36445;SDS011;22472;50.848;-1.216;2023-08-01T09:42:39;6.88;;;1.52;;
36445;SDS011;22472;50.848;-1.216;2023-08-01T09:47:36;6.50;;;1.10;;
36445;SDS011;22472;50.848;-1.216;2023-08-01T09:50:03;7.72;;;1.10;;
36445;SDS011;22472;50.848;-1.216;2023-08-01T09:52:34;7.38;;;1.58;;
36445;SDS011;22472;50.848;-1.216;2023-08-01T09:55:01;6.47;;;1.15;;
36445;SDS011;22472;50.848;-1.216;2023-08-01T09:57:30;6.20;;;1.40;;
36445;SDS011;22472;50.848;-1.216;2023-08-01T09:59:57;7.30;;;1.25;;
36445;SDS011;22472;50.848;-1.216;2023-08-01T10:02:26;8.43;;;1.13;;
36445;SDS011;22472;50.848;-1.216;2023-08-01T10:04:53;6.72;;;1.25;;
36445;SDS011;22472;50.848;-1.216;2023-08-01T10:07:26;5.38;;;0.80;;
36445;SDS011;22472;50.848;-1.216;2023-08-01T10:09:53;6.53;;;0.95;;
36445;SDS011;22472;50.848;-1.216;2023-08-01T10:12:22;5.05;;;1.00;;
36445;SDS011;22472;50.848;-1.216;2023-08-01T10:14:50;7.13;;;1.00;;
36445;SDS011;22472;50.848;-1.216;2023-08-01T10:17:18;5.32;;;1.02;;
36445;SDS011;22472;50.848;-1.216;2023-08-01T10:19:46;7.35;;;1.08;;
36445;SDS011;22472;50.848;-1.216;2023-08-01T10:22:13;6.90;;;1.15;;
36445;SDS011;22472;50.848;-1.216;2023-08-01T10:24:41;7.18;;;1.00;;
36445;SDS011;22472;50.848;-1.216;2023-08-01T10:27:10;3.38;;;0.82;;
36445;SDS011;22472;50.848;-1.216;2023-08-01T10:29:38;5.90;;;0.65;;
36445;SDS011;22472;50.848;-1.216;2023-08-01T10:32:07;4.57;;;0.68;;
36445;SDS011;22472;50.848;-1.216;2023-08-01T10:34:34;6.45;;;0.63;;
36445;SDS011;22472;50.848;-1.216;2023-08-01T10:37:02;5.22;;;0.80;;
36445;SDS011;22472;50.848;-1.216;2023-08-01T10:39:29;5.15;;;0.85;;
36445;SDS011;22472;50.848;-1.216;2023-08-01T10:41:57;5.13;;;0.98;;
36445;SDS011;22472;50.848;-1.216;2023-08-01T10:44:25;6.65;;;0.80;;
36445;SDS011;22472;50.848;-1.216;2023-08-01T10:46:53;4.30;;;0.60;;
36445;SDS011;22472;50.848;-1.216;2023-08-01T10:49:33;4.88;;;0.90;;
36445;SDS011;22472;50.848;-1.216;2023-08-01T10:54:27;4.70;;;0.63;;
36445;SDS011;22472;50.848;-1.216;2023-08-01T10:56:55;3.85;;;0.70;;
36445;SDS011;22472;50.848;-1.216;2023-08-01T10:59:23;5.57;;;0.77;;
36445;SDS011;22472;50.848;-1.216;2023-08-01T11:01:52;5.22;;;0.75;;
36445;SDS011;22472;50.848;-1.216;2023-08-01T11:04:19;6.55;;;1.00;;
36445;SDS011;22472;50.848;-1.216;2023-08-01T11:06:49;6.50;;;1.10;;
36445;SDS011;22472;50.848;-1.216;2023-08-01T11:09:17;8.57;;;1.70;;
36445;SDS011;22472;50.848;-1.216;2023-08-01T11:11:45;11.88;;;2.53;;
36445;SDS011;22472;50.848;-1.216;2023-08-01T11:14:12;13.35;;;2.42;;
36445;SDS011;22472;50.848;-1.216;2023-08-01T11:16:39;13.90;;;3.33;;
36445;SDS011;22472;50.848;-1.216;2023-08-01T11:19:17;15.90;;;3.35;;
36445;SDS011;22472;50.848;-1.216;2023-08-01T11:21:44;19.35;;;3.83;;
36445;SDS011;22472;50.848;-1.216;2023-08-01T11:24:13;15.20;;;3.78;;
36445;SDS011;22472;50.848;-1.216;2023-08-01T11:26:44;19.10;;;3.75;;
36445;SDS011;22472;50.848;-1.216;2023-08-01T11:29:11;15.40;;;3.53;;
36445;SDS011;22472;50.848;-1.216;2023-08-01T11:31:39;14.85;;;3.25;;
36445;SDS011;22472;50.848;-1.216;2023-08-01T11:34:07;15.60;;;3.25;;
36445;SDS011;22472;50.848;-1.216;2023-08-01T11:36:35;15.27;;;3.42;;
36445;SDS011;22472;50.848;-1.216;2023-08-01T11:39:03;13.45;;;3.20;;
36445;SDS011;22472;50.848;-1.216;2023-08-01T11:41:33;21.38;;;3.85;;
36445;SDS011;22472;50.848;-1.216;2023-08-01T11:44:03;13.15;;;3.28;;
36445;SDS011;22472;50.848;-1.216;2023-08-01T11:46:31;13.02;;;3.17;;
36445;SDS011;22472;50.848;-1.216;2023-08-01T11:49:00;14.93;;;3.22;;
36445;SDS011;22472;50.848;-1.216;2023-08-01T11:51:27;11.73;;;2.78;;
36445;SDS011;22472;50.848;-1.216;2023-08-01T11:53:58;11.63;;;2.72;;
36445;SDS011;22472;50.848;-1.216;2023-08-01T11:56:25;14.10;;;3.08;;
36445;SDS011;22472;50.848;-1.216;2023-08-01T11:58:54;10.68;;;2.85;;
36445;SDS011;22472;50.848;-1.216;2023-08-01T12:01:21;13.68;;;3.10;;
36445;SDS011;22472;50.848;-1.216;2023-08-01T12:03:49;14.55;;;2.67;;
36445;SDS011;22472;50.848;-1.216;2023-08-01T12:06:17;17.90;;;3.33;;
36445;SDS011;22472;50.848;-1.216;2023-08-01T12:08:45;11.77;;;2.72;;
36445;SDS011;22472;50.848;-1.216;2023-08-01T12:11:19;13.98;;;3.20;;
36445;SDS011;22472;50.848;-1.216;2023-08-01T12:13:46;10.65;;;2.50;;
36445;SDS011;22472;50.848;-1.216;2023-08-01T12:16:15;12.38;;;2.70;;
36445;SDS011;22472;50.848;-1.216;2023-08-01T12:18:45;12.20;;;2.75;;
36445;SDS011;22472;50.848;-1.216;2023-08-01T12:21:13;10.32;;;2.67;;
36445;SDS011;22472;50.848;-1.216;2023-08-01T12:23:40;14.38;;;3.10;;
36445;SDS011;22472;50.848;-1.216;2023-08-01T12:26:08;9.93;;;2.88;;
36445;SDS011;22472;50.848;-1.216;2023-08-01T12:28:35;12.20;;;3.53;;
36445;SDS011;22472;50.848;-1.216;2023-08-01T12:31:02;13.20;;;2.90;;
36445;SDS011;22472;50.848;-1.216;2023-08-01T12:33:31;14.07;;;3.15;;
36445;SDS011;22472;50.848;-1.216;2023-08-01T12:35:59;13.38;;;3.17;;
36445;SDS011;22472;50.848;-1.216;2023-08-01T12:38:26;13.73;;;3.13;;
36445;SDS011;22472;50.848;-1.216;2023-08-01T12:40:53;15.27;;;4.10;;
36445;SDS011;22472;50.848;-1.216;2023-08-01T12:43:21;17.17;;;4.15;;
36445;SDS011;22472;50.848;-1.216;2023-08-01T12:45:48;16.58;;;3.42;;
36445;SDS011;22472;50.848;-1.216;2023-08-01T12:48:15;19.42;;;4.28;;
36445;SDS011;22472;50.848;-1.216;2023-08-01T12:50:46;15.00;;;3.88;;
36445;SDS011;22472;50.848;-1.216;2023-08-01T12:53:14;13.63;;;3.75;;
36445;SDS011;22472;50.848;-1.216;2023-08-01T12:55:42;14.65;;;3.95;;
36445;SDS011;22472;50.848;-1.216;2023-08-01T12:58:10;18.92;;;4.75;;
36445;SDS011;22472;50.848;-1.216;2023-08-01T13:00:38;21.35;;;4.97;;
36445;SDS011;22472;50.848;-1.216;2023-08-01T13:03:05;17.05;;;4.63;;
36445;SDS011;22472;50.848;-1.216;2023-08-01T13:05:33;16.98;;;4.57;;
36445;SDS011;22472;50.848;-1.216;2023-08-01T13:08:02;18.42;;;4.32;;
36445;SDS011;22472;50.848;-1.216;2023-08-01T13:10:29;15.07;;;4.32;;
36445;SDS011;22472;50.848;-1.216;2023-08-01T13:12:57;19.00;;;4.78;;
36445;SDS011;22472;50.848;-1.216;2023-08-01T13:15:24;18.30;;;4.30;;
36445;SDS011;22472;50.848;-1.216;2023-08-01T13:17:51;16.05;;;4.32;;
36445;SDS011;22472;50.848;-1.216;2023-08-01T13:20:19;14.50;;;4.00;;
36445;SDS011;22472;50.848;-1.216;2023-08-01T13:22:46;18.30;;;4.15;;
36445;SDS011;22472;50.848;-1.216;2023-08-01T13:25:15;13.82;;;4.15;;
36445;SDS011;22472;50.848;-1.216;2023-08-01T13:27:43;17.00;;;4.10;;
36445;SDS011;22472;50.848;-1.216;2023-08-01T13:30:10;15.15;;;4.10;;
36445;SDS011;22472;50.848;-1.216;2023-08-01T13:32:39;15.57;;;4.13;;
36445;SDS011;22472;50.848;-1.216;2023-08-01T13:35:06;15.70;;;3.83;;
36445;SDS011;22472;50.848;-1.216;2023-08-01T13:37:34;12.57;;;3.65;;
36445;SDS011;22472;50.848;-1.216;2023-08-01T13:40:01;13.10;;;3.88;;
36445;SDS011;22472;50.848;-1.216;2023-08-01T13:42:29;16.42;;;3.67;;
36445;SDS011;22472;50.848;-1.216;2023-08-01T13:44:57;12.20;;;3.75;;
36445;SDS011;22472;50.848;-1.216;2023-08-01T13:47:24;12.20;;;3.20;;
36445;SDS011;22472;50.848;-1.216;2023-08-01T13:49:51;9.10;;;3.03;;
36445;SDS011;22472;50.848;-1.216;2023-08-01T13:52:19;11.10;;;2.60;;
36445;SDS011;22472;50.848;-1.216;2023-08-01T13:54:46;10.35;;;2.80;;
36445;SDS011;22472;50.848;-1.216;2023-08-01T13:57:13;11.98;;;2.60;;
36445;SDS011;22472;50.848;-1.216;2023-08-01T13:59:42;10.80;;;2.53;;
36445;SDS011;22472;50.848;-1.216;2023-08-01T14:02:09;12.55;;;2.75;;
36445;SDS011;22472;50.848;-1.216;2023-08-01T14:04:37;9.70;;;2.13;;
36445;SDS011;22472;50.848;-1.216;2023-08-01T14:07:04;7.53;;;1.67;;
36445;SDS011;22472;50.848;-1.216;2023-08-01T14:09:31;4.78;;;1.33;;
36445;SDS011;22472;50.848;-1.216;2023-08-01T14:12:01;6.82;;;1.50;;
36445;SDS011;22472;50.848;-1.216;2023-08-01T14:14:29;6.28;;;1.42;;
36445;SDS011;22472;50.848;-1.216;2023-08-01T14:16:58;6.00;;;1.33;;
36445;SDS011;22472;50.848;-1.216;2023-08-01T14:19:25;7.65;;;1.45;;
36445;SDS011;22472;50.848;-1.216;2023-08-01T14:21:54;5.25;;;0.98;;
36445;SDS011;22472;50.848;-1.216;2023-08-01T14:24:22;5.78;;;0.82;;
36445;SDS011;22472;50.848;-1.216;2023-08-01T14:26:49;4.78;;;1.17;;
36445;SDS011;22472;50.848;-1.216;2023-08-01T14:29:17;4.90;;;1.00;;
36445;SDS011;22472;50.848;-1.216;2023-08-01T14:34:15;7.13;;;1.50;;
36445;SDS011;22472;50.848;-1.216;2023-08-01T14:36:42;6.70;;;1.63;;